Time;durP1;ratioP1;P1;durP2;ratioP2;P2;SDS_P1;SDS_P2;PMS_P1;PMS_P2;Temp;Humidity;BMP_temperature;BMP_pressure;BME280_temperature;BME280_humidity;BME280_pressure;Samples;Min_cycle;Max_cycle;Signal;HPM_P1;HPM_P2
2022/07/15 00:00:51;;;;;;;13.98;3.63;;;;;;;17.93;86.66;101716.75;5052513;28;20059;-76
2022/07/15 00:03:17;;;;;;;10.30;3.28;;;;;;;17.85;87.17;101710.47;5055897;28;20044;-72
2022/07/15 00:05:45;;;;;;;11.27;3.47;;;;;;;17.86;88.17;101714.84;5061218;28;20051;-75
2022/07/15 00:08:11;;;;;;;14.80;3.28;;;;;;;17.74;88.94;101711.84;5056437;28;20171;-74
2022/07/15 00:10:38;;;;;;;12.15;3.50;;;;;;;17.75;89.67;101722.63;5060657;28;20426;-74
2022/07/15 00:13:05;;;;;;;14.02;3.38;;;;;;;17.78;89.04;101720.97;5056390;28;20051;-74
2022/07/15 00:15:32;;;;;;;10.90;3.47;;;;;;;17.83;89.11;101723.31;5058843;28;20827;-76
2022/07/15 00:18:01;;;;;;;8.32;3.65;;;;;;;17.87;88.47;101726.84;5058633;28;20426;-74
2022/07/15 00:20:33;;;;;;;14.50;3.50;;;;;;;17.94;89.07;101715.53;5054327;28;20126;-73
2022/07/15 00:23:05;;;;;;;11.18;3.80;;;;;;;18.01;88.16;101712.63;5058513;28;20048;-75
2022/07/15 00:25:32;;;;;;;13.27;3.50;;;;;;;18.08;88.69;101712.50;5055745;28;20047;-74
2022/07/15 00:28:01;;;;;;;10.48;3.33;;;;;;;18.16;87.59;101707.59;5057084;28;20089;-73
2022/07/15 00:30:32;;;;;;;12.93;4.03;;;;;;;18.25;87.58;101710.66;5059961;28;20059;-75
2022/07/15 00:33:00;;;;;;;15.68;3.40;;;;;;;18.22;86.34;101706.66;5057305;28;20044;-72
2022/07/15 00:35:28;;;;;;;11.52;3.25;;;;;;;18.24;88.30;101714.66;5060859;28;20050;-75
2022/07/15 00:37:54;;;;;;;16.50;3.78;;;;;;;18.21;87.50;101709.88;5058648;28;20071;-77
2022/07/15 00:40:21;;;;;;;10.60;3.50;;;;;;;18.17;87.46;101706.38;5054729;28;20048;-75
2022/07/15 00:42:48;;;;;;;9.98;3.50;;;;;;;18.07;88.97;101719.34;5056479;28;20139;-73
2022/07/15 00:45:21;;;;;;;12.30;3.40;;;;;;;18.02;88.81;101719.78;5060397;28;20063;-76
2022/07/15 00:47:51;;;;;;;14.93;3.40;;;;;;;18.02;88.11;101730.22;5059379;28;20058;-74
2022/07/15 00:50:19;;;;;;;14.38;3.50;;;;;;;17.96;89.58;101722.28;5060076;28;20051;-76
2022/07/15 00:53:10;;;;;;;7.53;3.35;;;;;;;17.94;89.63;101721.13;5058495;28;20044;-73
2022/07/15 00:55:40;;;;;;;12.23;3.13;;;;;;;18.00;88.49;101722.25;5058301;28;20147;-76
2022/07/15 00:58:10;;;;;;;5.63;2.47;;;;;;;17.98;89.99;101715.50;5058337;28;20052;-76
2022/07/15 01:00:37;;;;;;;10.23;2.83;;;;;;;17.98;88.83;101719.06;5052012;28;20058;-75
2022/07/15 01:03:05;;;;;;;13.48;3.70;;;;;;;17.96;88.82;101727.88;5057114;28;20143;-73
2022/07/15 01:05:33;;;;;;;14.10;3.30;;;;;;;17.96;88.16;101733.50;5060061;28;20992;-74
2022/07/15 01:07:59;;;;;;;9.60;2.88;;;;;;;17.95;88.01;101728.31;5055096;28;20054;-75
2022/07/15 01:10:26;;;;;;;13.77;3.25;;;;;;;17.91;87.75;101719.97;5056856;28;20069;-75
2022/07/15 01:12:53;;;;;;;10.23;3.03;;;;;;;17.88;87.88;101726.44;5055263;28;20040;-76
2022/07/15 01:15:20;;;;;;;11.70;3.38;;;;;;;17.88;88.19;101722.81;5055470;28;20060;-75
2022/07/15 01:17:47;;;;;;;13.25;3.17;;;;;;;17.78;87.97;101721.78;5060023;28;20501;-74
2022/07/15 01:20:14;;;;;;;15.45;3.85;;;;;;;17.69;88.38;101729.91;5060024;28;20060;-76
2022/07/15 01:22:41;;;;;;;9.32;3.72;;;;;;;17.61;88.98;101722.03;5057172;28;20910;-74
2022/07/15 01:25:08;;;;;;;12.43;3.08;;;;;;;17.49;89.74;101726.19;5060149;28;20058;-74
2022/07/15 01:27:35;;;;;;;13.32;3.42;;;;;;;17.39;89.43;101727.06;5054480;28;20132;-75
2022/07/15 01:30:02;;;;;;;13.35;3.80;;;;;;;17.41;90.21;101721.88;5058750;28;20075;-75
2022/07/15 01:32:28;;;;;;;13.75;3.70;;;;;;;17.37;89.97;101728.72;5058196;28;20082;-73
2022/07/15 01:34:55;;;;;;;9.32;3.20;;;;;;;17.29;90.06;101730.03;5060038;28;20068;-77
2022/07/15 01:37:22;;;;;;;12.43;3.40;;;;;;;17.26;90.74;101728.06;5056911;28;20063;-75
2022/07/15 01:39:48;;;;;;;11.27;3.13;;;;;;;17.17;91.12;101719.38;5059082;28;20056;-74
2022/07/15 01:42:15;;;;;;;12.30;3.30;;;;;;;17.11;92.11;101732.25;5062265;28;20048;-74
2022/07/15 01:44:42;;;;;;;12.20;3.67;;;;;;;17.04;91.37;101729.53;5063184;28;20048;-77
2022/07/15 01:47:08;;;;;;;9.65;3.22;;;;;;;16.92;92.50;101725.28;5065390;28;20048;-76
2022/07/15 01:49:35;;;;;;;11.38;2.90;;;;;;;16.84;93.79;101734.16;5055568;28;20105;-73
2022/07/15 01:52:03;;;;;;;18.00;3.42;;;;;;;16.82;93.39;101736.56;5057323;28;20052;-74
2022/07/15 01:54:32;;;;;;;12.63;4.13;;;;;;;16.68;95.21;101731.94;5060637;28;20098;-78
2022/07/15 01:56:58;;;;;;;15.57;3.78;;;;;;;16.56;95.30;101738.03;5058043;28;20059;-76
2022/07/15 01:59:26;;;;;;;14.35;3.60;;;;;;;16.39;95.93;101721.38;5050053;28;20052;-77
2022/07/15 02:01:54;;;;;;;11.10;3.30;;;;;;;16.44;96.72;101737.75;5057539;28;20106;-75
2022/07/15 02:04:22;;;;;;;7.93;3.28;;;;;;;16.38;97.57;101747.72;5066339;28;20461;-73
2022/07/15 02:06:49;;;;;;;8.77;2.92;;;;;;;16.27;100.00;101741.44;5056230;28;20577;-74
2022/07/15 02:09:16;;;;;;;7.72;2.97;;;;;;;16.24;98.52;101743.06;5056246;28;20102;-73
2022/07/15 02:11:43;;;;;;;8.48;2.75;;;;;;;16.13;100.00;101744.34;5057404;28;20127;-72
2022/07/15 02:14:09;;;;;;;12.75;3.35;;;;;;;16.04;100.00;101744.03;5055621;28;20053;-73
2022/07/15 02:16:36;;;;;;;9.57;3.28;;;;;;;15.96;100.00;101736.91;5057141;28;20491;-73
2022/07/15 02:19:03;;;;;;;16.40;3.88;;;;;;;15.92;100.00;101736.13;5063060;28;20135;-76
2022/07/15 02:21:29;;;;;;;12.80;3.30;;;;;;;15.87;100.00;101739.34;5062151;28;20103;-72
2022/07/15 02:23:57;;;;;;;9.77;2.97;;;;;;;15.79;100.00;101740.63;5047614;28;20045;-71
2022/07/15 02:26:24;;;;;;;14.60;3.58;;;;;;;15.77;100.00;101743.00;5054987;28;20052;-72
2022/07/15 02:28:51;;;;;;;15.25;3.83;;;;;;;15.73;100.00;101740.25;5051461;28;20064;-72
2022/07/15 02:31:17;;;;;;;12.85;3.10;;;;;;;15.71;100.00;101751.00;5063802;28;20063;-73
2022/07/15 02:33:45;;;;;;;11.60;3.30;;;;;;;15.76;100.00;101749.78;5053935;28;20460;-76
2022/07/15 02:36:12;;;;;;;15.25;3.47;;;;;;;15.70;100.00;101741.06;5060007;28;20145;-73
2022/07/15 02:38:40;;;;;;;11.07;3.58;;;;;;;15.73;100.00;101742.22;5066356;28;20060;-72
2022/07/15 02:41:07;;;;;;;13.77;3.63;;;;;;;15.74;100.00;101757.75;5066288;28;20157;-72
2022/07/15 02:43:34;;;;;;;13.57;3.40;;;;;;;15.71;100.00;101751.00;5068952;28;20068;-72
2022/07/15 02:46:00;;;;;;;10.85;3.35;;;;;;;15.76;100.00;101747.78;5053064;28;20133;-76
2022/07/15 02:48:27;;;;;;;14.20;3.65;;;;;;;15.72;100.00;101746.22;5057984;28;20052;-72
2022/07/15 02:50:54;;;;;;;17.67;3.28;;;;;;;15.60;100.00;101750.28;5059114;28;20040;-71
2022/07/15 02:53:23;;;;;;;13.88;3.10;;;;;;;15.57;100.00;101755.88;5062462;28;20073;-72
2022/07/15 02:55:50;;;;;;;13.43;3.30;;;;;;;15.53;100.00;101755.91;5060214;28;20057;-74
2022/07/15 02:58:17;;;;;;;13.23;3.60;;;;;;;15.53;100.00;101753.13;5067041;28;20131;-72
2022/07/15 03:00:44;;;;;;;13.07;3.20;;;;;;;15.60;100.00;101752.25;5061554;28;20120;-72
2022/07/15 03:03:11;;;;;;;13.50;3.55;;;;;;;15.63;100.00;101757.84;5057676;28;20131;-72
2022/07/15 03:05:37;;;;;;;14.15;4.07;;;;;;;15.61;100.00;101757.44;5056808;28;20040;-71
2022/07/15 03:08:04;;;;;;;10.70;3.83;;;;;;;15.67;100.00;101764.19;5061423;28;20094;-71
2022/07/15 03:10:31;;;;;;;10.43;2.78;;;;;;;15.63;100.00;101760.63;5064307;28;20847;-72
2022/07/15 03:12:58;;;;;;;12.68;3.20;;;;;;;15.61;100.00;101770.59;5064945;28;20101;-72
2022/07/15 03:15:25;;;;;;;12.45;3.58;;;;;;;15.56;100.00;101771.03;5054475;28;20110;-74
2022/07/15 03:17:52;;;;;;;10.60;3.20;;;;;;;15.55;100.00;101772.22;5066146;28;20044;-72
2022/07/15 03:20:18;;;;;;;13.43;3.22;;;;;;;15.43;100.00;101771.47;5061868;28;20505;-71
2022/07/15 03:22:45;;;;;;;13.93;3.58;;;;;;;15.36;100.00;101770.72;5063859;28;20060;-73
2022/07/15 03:25:11;;;;;;;12.75;3.55;;;;;;;15.26;100.00;101780.66;5060950;28;20139;-75
2022/07/15 03:27:38;;;;;;;8.23;3.38;;;;;;;15.18;100.00;101781.91;5059154;28;20501;-75
2022/07/15 03:30:05;;;;;;;11.90;3.55;;;;;;;15.17;100.00;101782.28;5056698;28;20521;-72
2022/07/15 03:32:32;;;;;;;15.13;3.67;;;;;;;15.10;100.00;101794.28;5060002;28;20080;-71
2022/07/15 03:34:59;;;;;;;10.70;3.42;;;;;;;15.06;100.00;101796.25;5065260;28;20792;-74
2022/07/15 03:37:26;;;;;;;17.98;5.63;;;;;;;15.08;100.00;101790.28;5062450;28;20162;-72
2022/07/15 03:39:52;;;;;;;14.48;3.83;;;;;;;15.04;100.00;101784.72;5065593;28;20067;-72
2022/07/15 03:42:19;;;;;;;12.88;4.80;;;;;;;15.08;100.00;101788.28;5066092;28;20638;-71
2022/07/15 03:44:45;;;;;;;12.07;3.40;;;;;;;15.09;100.00;101791.88;5058307;28;20170;-73
2022/07/15 03:47:12;;;;;;;13.23;3.97;;;;;;;15.04;100.00;101789.50;5060899;28;20091;-75
2022/07/15 03:49:39;;;;;;;16.13;4.65;;;;;;;15.00;100.00;101795.09;5058281;28;20514;-72
2022/07/15 03:52:05;;;;;;;14.55;4.78;;;;;;;15.00;100.00;101795.09;5051286;28;20063;-74
2022/07/15 03:54:32;;;;;;;17.20;4.68;;;;;;;14.96;100.00;101799.06;5056704;28;20099;-73
2022/07/15 03:56:58;;;;;;;19.15;4.55;;;;;;;14.99;100.00;101804.63;5056582;28;20044;-71
2022/07/15 03:59:25;;;;;;;11.10;4.40;;;;;;;14.92;100.00;101813.00;5063948;28;20080;-72
2022/07/15 04:01:52;;;;;;;12.68;4.05;;;;;;;14.90;100.00;101815.41;5050812;28;20131;-72
2022/07/15 04:04:19;;;;;;;11.63;4.28;;;;;;;14.82;100.00;101816.59;5062913;28;20049;-71
2022/07/15 04:06:45;;;;;;;17.13;4.28;;;;;;;14.75;100.00;101819.41;5059486;28;20052;-72
2022/07/15 04:09:12;;;;;;;14.50;5.00;;;;;;;14.76;100.00;101818.22;5065006;28;20077;-74
2022/07/15 04:11:42;;;;;;;15.13;4.15;;;;;;;14.71;100.00;101815.81;5062848;28;20098;-71
2022/07/15 04:14:11;;;;;;;14.32;4.90;;;;;;;14.73;100.00;101821.81;5057704;28;20048;-72
2022/07/15 04:16:38;;;;;;;14.50;3.70;;;;;;;14.72;100.00;101822.97;5052777;28;20047;-71
2022/07/15 04:19:05;;;;;;;12.40;4.25;;;;;;;14.80;100.00;101815.41;5065790;28;20051;-72
2022/07/15 04:21:31;;;;;;;19.40;5.50;;;;;;;14.84;100.00;101827.34;5061903;28;20152;-72
2022/07/15 04:23:58;;;;;;;13.27;4.30;;;;;;;14.84;100.00;101825.38;5055211;28;20041;-71
2022/07/15 04:26:25;;;;;;;17.25;4.90;;;;;;;14.88;100.00;101842.88;5061971;28;20060;-72
2022/07/15 04:28:52;;;;;;;17.08;5.82;;;;;;;14.92;100.00;101837.31;5058231;28;20053;-72
2022/07/15 04:31:18;;;;;;;17.40;4.63;;;;;;;15.07;100.00;101845.25;5062648;28;20143;-75
2022/07/15 04:33:45;;;;;;;16.08;4.95;;;;;;;15.04;100.00;101843.25;5060516;28;20052;-72
2022/07/15 04:36:12;;;;;;;15.10;4.55;;;;;;;14.96;100.00;101849.25;5063783;28;20068;-73
2022/07/15 04:38:38;;;;;;;12.20;4.97;;;;;;;14.93;100.00;101850.84;5065611;28;20637;-75
2022/07/15 04:41:05;;;;;;;17.08;4.95;;;;;;;14.92;100.00;101851.25;5053085;28;20063;-72
2022/07/15 04:43:32;;;;;;;20.33;4.93;;;;;;;14.94;100.00;101858.00;5065146;28;20048;-73
2022/07/15 04:45:58;;;;;;;15.63;6.00;;;;;;;14.98;100.00;101864.38;5052765;28;20127;-73
2022/07/15 04:51:11;;;;;;;15.32;5.45;;;;;;;14.96;100.00;101868.75;5066401;28;20520;-73
2022/07/15 04:53:38;;;;;;;16.27;5.88;;;;;;;14.97;100.00;101873.13;5066686;28;20074;-71
2022/07/15 04:56:05;;;;;;;13.77;5.28;;;;;;;15.03;100.00;101875.13;5050834;28;20057;-71
2022/07/15 04:58:32;;;;;;;19.08;6.03;;;;;;;15.08;100.00;101869.13;5054512;28;20503;-76
2022/07/15 05:00:58;;;;;;;16.77;5.45;;;;;;;15.17;100.00;101872.31;5059899;28;20131;-69
2022/07/15 05:03:25;;;;;;;13.80;4.57;;;;;;;15.22;100.00;101859.94;5049144;28;20037;-73
2022/07/15 05:05:51;;;;;;;16.90;5.40;;;;;;;15.25;100.00;101865.53;5063028;28;20854;-76
2022/07/15 05:08:20;;;;;;;21.73;5.82;;;;;;;15.37;100.00;101864.34;5058677;28;20140;-71
2022/07/15 05:10:47;;;;;;;17.33;5.72;;;;;;;15.45;100.00;101869.50;5058839;28;20493;-72
2022/07/15 05:13:14;;;;;;;16.38;5.47;;;;;;;15.52;100.00;101876.25;5067854;28;20052;-73
2022/07/15 05:15:40;;;;;;;16.08;5.90;;;;;;;15.49;100.00;101870.28;5062741;28;20473;-76
2022/07/15 05:18:07;;;;;;;14.88;4.90;;;;;;;15.63;100.00;101868.63;5065962;28;20057;-71
2022/07/15 05:20:34;;;;;;;17.20;5.10;;;;;;;15.77;100.00;101869.38;5067088;28;20066;-71
2022/07/15 05:23:00;;;;;;;16.00;5.18;;;;;;;15.92;100.00;101864.50;5047529;28;20056;-73
2022/07/15 05:25:27;;;;;;;14.90;4.90;;;;;;;16.08;100.00;101864.84;5066396;28;20052;-75
2022/07/15 05:27:53;;;;;;;14.45;4.15;;;;;;;16.19;100.00;101863.56;5061895;28;20135;-71
2022/07/15 05:30:20;;;;;;;14.38;4.00;;;;;;;16.27;100.00;101867.13;5062303;28;20053;-73
2022/07/15 05:32:47;;;;;;;19.38;5.03;;;;;;;16.35;100.00;101857.50;5066874;28;20821;-73
2022/07/15 05:35:17;;;;;;;13.43;3.88;;;;;;;16.34;100.00;101861.50;5068165;28;20132;-72
2022/07/15 05:37:44;;;;;;;14.02;3.53;;;;;;;16.38;100.00;101857.47;5063408;28;20472;-72
2022/07/15 05:40:11;;;;;;;15.02;4.10;;;;;;;16.40;100.00;101857.06;5058117;28;20053;-74
2022/07/15 05:42:39;;;;;;;11.20;4.00;;;;;;;16.31;100.00;101856.72;5066698;28;20048;-72
2022/07/15 05:45:07;;;;;;;21.10;4.90;;;;;;;16.29;100.00;101859.13;5057956;28;20057;-73
2022/07/15 05:47:34;;;;;;;9.70;3.28;;;;;;;16.27;100.00;101848.34;5058840;28;20402;-70
2022/07/15 05:50:01;;;;;;;14.25;4.22;;;;;;;16.40;100.00;101859.88;5063456;28;20056;-75
2022/07/15 05:52:27;;;;;;;13.30;3.75;;;;;;;16.48;100.00;101867.00;5051901;28;20513;-68
2022/07/15 05:54:54;;;;;;;18.83;5.65;;;;;;;16.59;100.00;101865.72;5055779;28;20477;-68
2022/07/15 05:57:20;;;;;;;19.38;3.80;;;;;;;16.71;100.00;101870.03;5059479;28;20060;-74
2022/07/15 05:59:47;;;;;;;18.02;3.30;;;;;;;16.70;100.00;101865.63;5058435;28;20049;-74
2022/07/15 06:02:13;;;;;;;12.75;3.25;;;;;;;16.77;100.00;101862.81;5061640;28;20087;-68
2022/07/15 06:04:41;;;;;;;12.00;3.30;;;;;;;16.86;100.00;101860.31;5055971;28;20076;-71
2022/07/15 06:07:08;;;;;;;17.15;3.30;;;;;;;16.95;100.00;101863.44;5061017;28;20078;-71
2022/07/15 06:09:35;;;;;;;15.07;3.63;;;;;;;17.10;98.97;101865.69;5058737;28;20497;-72
2022/07/15 06:12:01;;;;;;;14.75;2.92;;;;;;;17.23;98.12;101866.75;5055256;28;20139;-75
2022/07/15 06:14:28;;;;;;;18.88;2.38;;;;;;;17.15;94.01;101864.44;5059814;28;20041;-71
2022/07/15 06:17:03;;;;;;;13.27;1.97;;;;;;;17.28;93.35;101860.69;5062282;28;20056;-74
2022/07/15 06:19:29;;;;;;;9.90;2.72;;;;;;;17.43;92.95;101861.38;5062424;28;20088;-74
2022/07/15 06:21:56;;;;;;;13.52;2.50;;;;;;;17.40;90.54;101867.78;5069563;28;20080;-71
2022/07/15 06:24:23;;;;;;;9.15;2.25;;;;;;;17.52;90.82;101870.06;5059638;28;20049;-71
2022/07/15 06:26:49;;;;;;;10.55;2.42;;;;;;;17.64;88.74;101878.72;5065787;28;20052;-71
2022/07/15 06:29:16;;;;;;;14.95;2.45;;;;;;;17.69;87.90;101871.88;5050723;28;20140;-75
2022/07/15 06:31:42;;;;;;;12.98;2.05;;;;;;;17.86;88.43;101868.06;5066417;28;20070;-72
2022/07/15 06:34:09;;;;;;;12.50;2.20;;;;;;;18.02;88.07;101870.25;5062256;28;20055;-72
2022/07/15 06:36:36;;;;;;;13.52;1.92;;;;;;;18.16;85.73;101873.66;5062464;28;20052;-74
2022/07/15 06:39:03;;;;;;;6.05;1.67;;;;;;;18.19;82.16;101870.00;5058515;28;20500;-72
2022/07/15 06:41:31;;;;;;;12.80;1.98;;;;;;;18.29;82.52;101882.28;5062833;28;20311;-71
2022/07/15 06:43:59;;;;;;;7.82;1.80;;;;;;;18.28;81.84;101881.47;5050535;28;20041;-74
2022/07/15 06:46:25;;;;;;;16.08;2.20;;;;;;;18.29;82.15;101877.44;5058964;28;20061;-71
2022/07/15 06:48:52;;;;;;;8.93;2.78;;;;;;;18.27;81.54;101876.28;5063688;28;20055;-73
2022/07/15 06:51:18;;;;;;;9.13;1.75;;;;;;;18.42;80.43;101874.91;5063069;28;20060;-73
2022/07/15 06:53:45;;;;;;;12.48;2.08;;;;;;;18.53;78.02;101873.50;5063398;28;20050;-70
2022/07/15 06:56:12;;;;;;;8.93;1.90;;;;;;;18.77;77.47;101866.75;5063697;28;20131;-73
2022/07/15 06:58:39;;;;;;;15.18;2.30;;;;;;;18.96;77.02;101868.81;5061334;28;20766;-75
2022/07/15 07:01:06;;;;;;;7.78;1.75;;;;;;;19.06;76.26;101855.81;5065126;28;20507;-73
2022/07/15 07:03:33;;;;;;;11.77;2.22;;;;;;;19.22;75.45;101865.13;5053806;28;20102;-78
2022/07/15 07:06:19;;;;;;;14.88;3.28;;;;;;;19.15;73.85;101875.69;5065024;28;20041;-71
2022/07/15 07:08:49;;;;;;;10.98;1.67;;;;;;;19.16;74.23;101880.88;5064417;28;20131;-75
2022/07/15 07:11:17;;;;;;;11.00;1.95;;;;;;;19.29;73.46;101870.66;5048553;28;20106;-73
2022/07/15 07:13:45;;;;;;;12.25;2.13;;;;;;;19.42;72.12;101874.41;5065423;28;20062;-72
2022/07/15 07:16:12;;;;;;;14.55;2.63;;;;;;;19.55;71.86;101874.56;5061011;28;20932;-72
2022/07/15 07:18:39;;;;;;;11.88;2.28;;;;;;;19.60;71.79;101880.47;5057646;28;20140;-71
2022/07/15 07:21:05;;;;;;;4.68;1.50;;;;;;;19.45;70.32;101879.16;5057571;28;20053;-73
2022/07/15 07:23:32;;;;;;;11.20;1.85;;;;;;;19.54;70.88;101885.00;5061823;28;20738;-72
2022/07/15 07:25:59;;;;;;;10.13;2.28;;;;;;;19.70;71.62;101873.84;5053556;28;20132;-70
2022/07/15 07:28:25;;;;;;;8.15;1.48;;;;;;;19.82;70.65;101887.25;5068127;28;20140;-75
2022/07/15 07:30:54;;;;;;;5.90;1.45;;;;;;;19.91;68.38;101884.63;5060450;28;20671;-72
2022/07/15 07:33:21;;;;;;;12.82;2.67;;;;;;;19.97;67.28;101884.91;5063471;28;20045;-72
2022/07/15 07:35:48;;;;;;;9.80;1.80;;;;;;;19.91;67.81;101878.25;5064759;28;21004;-72
2022/07/15 07:38:14;;;;;;;13.98;1.98;;;;;;;20.03;67.57;101881.19;5063603;28;20049;-72
2022/07/15 07:40:41;;;;;;;17.63;3.88;;;;;;;20.04;69.23;101881.94;5064002;28;20135;-73
2022/07/15 07:43:07;;;;;;;10.07;1.95;;;;;;;20.21;68.67;101875.97;5061826;28;20132;-72
2022/07/15 07:45:34;;;;;;;7.53;1.73;;;;;;;20.30;67.14;101867.75;5068964;28;20076;-72
2022/07/15 07:48:01;;;;;;;9.30;1.92;;;;;;;20.45;67.54;101878.66;5055693;28;20053;-73
2022/07/15 07:50:28;;;;;;;13.85;2.60;;;;;;;20.35;67.10;101875.66;5061437;28;20084;-74
2022/07/15 07:52:54;;;;;;;10.48;1.77;;;;;;;20.31;66.45;101871.34;5059560;28;20567;-73
2022/07/15 07:55:21;;;;;;;8.77;1.90;;;;;;;20.51;66.38;101871.31;5053425;28;20109;-73
2022/07/15 07:57:52;;;;;;;9.98;1.85;;;;;;;20.56;64.05;101879.19;5054171;28;20497;-71
2022/07/15 08:00:19;;;;;;;11.23;2.35;;;;;;;20.49;65.02;101874.53;5057359;28;20094;-74
2022/07/15 08:02:46;;;;;;;9.73;1.90;;;;;;;20.27;65.35;101874.25;5054302;28;20501;-71
2022/07/15 08:05:15;;;;;;;6.90;1.58;;;;;;;20.20;66.43;101871.59;5053354;28;20049;-71
2022/07/15 08:07:50;;;;;;;9.20;1.83;;;;;;;20.23;66.85;101878.34;5057789;28;20044;-72
2022/07/15 08:10:19;;;;;;;15.73;1.75;;;;;;;20.23;66.23;101876.34;5053681;28;20151;-74
2022/07/15 08:12:45;;;;;;;9.73;1.75;;;;;;;20.34;65.89;101876.88;5048084;28;20055;-76
2022/07/15 08:15:12;;;;;;;8.18;1.67;;;;;;;20.31;65.03;101880.56;5058993;28;20051;-73
2022/07/15 08:17:40;;;;;;;9.88;2.00;;;;;;;20.27;65.34;101876.25;5061677;28;20054;-72
2022/07/15 08:20:08;;;;;;;9.68;1.80;;;;;;;20.27;66.01;101874.25;5058086;28;20055;-71
2022/07/15 08:22:36;;;;;;;3.03;1.10;;;;;;;19.97;63.72;101879.28;5066289;28;20140;-72
2022/07/15 08:25:03;;;;;;;10.15;1.50;;;;;;;19.85;65.57;101874.34;5057745;28;20519;-72
2022/07/15 08:27:30;;;;;;;10.63;1.80;;;;;;;19.90;66.31;101877.44;5052379;28;20063;-72
2022/07/15 08:29:57;;;;;;;7.85;1.65;;;;;;;20.12;65.53;101884.19;5061101;28;20052;-74
2022/07/15 08:32:24;;;;;;;9.25;1.88;;;;;;;20.16;65.69;101876.50;5049041;28;20048;-74
2022/07/15 08:34:51;;;;;;;8.02;1.65;;;;;;;19.97;65.96;101877.28;5059079;28;20124;-74
2022/07/15 08:37:18;;;;;;;8.18;1.40;;;;;;;20.21;63.72;101875.19;5053692;28;20127;-71
2022/07/15 08:39:44;;;;;;;8.60;1.80;;;;;;;20.26;63.50;101875.44;5066316;28;20094;-71
2022/07/15 08:42:13;;;;;;;10.00;2.08;;;;;;;20.16;64.06;101870.88;5056546;28;20083;-71
2022/07/15 08:44:40;;;;;;;10.23;1.75;;;;;;;20.47;62.80;101877.00;5059192;28;20135;-72
2022/07/15 08:47:07;;;;;;;10.38;1.95;;;;;;;20.71;60.22;101891.69;5062331;28;20052;-74
2022/07/15 08:49:57;;;;;;;9.68;2.08;;;;;;;20.42;61.27;101879.53;5053128;28;20106;-74
2022/07/15 08:52:25;;;;;;;9.15;2.63;;;;;;;20.41;62.57;101875.91;5043194;28;20096;-74
2022/07/15 08:54:52;;;;;;;7.00;1.98;;;;;;;20.47;62.96;101882.63;5049832;28;20068;-75
2022/07/15 08:57:19;;;;;;;7.57;1.63;;;;;;;20.26;59.36;101877.50;5043163;28;20052;-73
2022/07/15 08:59:46;;;;;;;4.78;1.38;;;;;;;20.06;60.89;101877.50;5050169;28;20147;-75
2022/07/15 09:02:17;;;;;;;6.07;1.50;;;;;;;20.42;62.13;101877.53;5049711;28;20846;-73
2022/07/15 09:05:26;;;;;;;10.63;1.95;;;;;;;20.93;60.32;101873.06;5046132;28;20047;-75
2022/07/15 09:08:02;;;;;;;6.65;1.15;;;;;;;20.94;56.80;101877.47;5043713;28;20048;-76
2022/07/15 09:10:49;;;;;;;18.73;2.00;;;;;;;20.67;56.11;101876.91;5047364;28;20049;-74
2022/07/15 09:13:34;;;;;;;6.60;2.28;;;;;;;20.63;57.13;101877.00;5048689;28;20053;-73
2022/07/15 09:16:09;;;;;;;6.50;1.50;;;;;;;20.73;56.81;101870.34;5045472;28;20056;-74
2022/07/15 09:18:41;;;;;;;8.10;1.63;;;;;;;20.95;57.10;101870.63;5042786;28;20611;-75
2022/07/15 09:21:26;;;;;;;7.03;1.00;;;;;;;20.96;55.51;101863.75;5041776;28;20833;-78
2022/07/15 09:23:53;;;;;;;5.90;1.20;;;;;;;21.07;55.13;101867.88;5040124;28;20085;-75
2022/07/15 09:26:33;;;;;;;4.55;1.23;;;;;;;20.97;55.14;101865.34;5037990;28;20098;-72
2022/07/15 09:29:00;;;;;;;4.40;1.38;;;;;;;21.18;54.27;101868.41;5039151;28;20060;-73
2022/07/15 09:34:24;;;;;;;4.40;1.35;;;;;;;21.52;51.97;101865.03;5039939;28;20758;-71
2022/07/15 09:36:57;;;;;;;1.88;0.52;;;;;;;20.89;52.58;101864.69;5039364;28;20282;-77
2022/07/15 09:39:24;;;;;;;5.05;1.42;;;;;;;21.15;54.14;101860.03;5041839;28;20191;-72
2022/07/15 09:41:52;;;;;;;5.55;1.38;;;;;;;21.17;52.19;101863.22;5045299;28;20052;-73
2022/07/15 09:44:29;;;;;;;10.98;1.75;;;;;;;21.27;52.93;101862.94;5041947;28;20052;-71
2022/07/15 09:47:01;;;;;;;9.23;1.40;;;;;;;21.51;52.57;101863.47;5039822;28;20144;-72
2022/07/15 09:49:29;;;;;;;6.00;2.03;;;;;;;21.58;51.83;101860.44;5048809;28;20159;-71
2022/07/15 09:52:07;;;;;;;5.60;1.27;;;;;;;21.85;51.26;101860.91;5051901;28;20052;-73
2022/07/15 09:54:35;;;;;;;5.03;1.63;;;;;;;22.18;50.28;101860.25;5057269;28;20152;-73
2022/07/15 09:57:04;;;;;;;9.18;1.40;;;;;;;22.31;48.71;101858.25;5051409;28;20052;-73
2022/07/15 09:59:31;;;;;;;5.82;1.25;;;;;;;22.09;46.99;101859.34;5049002;28;20063;-75
2022/07/15 10:02:05;;;;;;;4.65;1.23;;;;;;;22.31;49.63;101854.66;5048729;28;20513;-73
2022/07/15 10:04:31;;;;;;;8.73;1.60;;;;;;;22.62;49.37;101856.47;5047229;28;20041;-72
2022/07/15 10:07:02;;;;;;;7.38;1.48;;;;;;;22.88;48.60;101856.44;5049454;28;20049;-73
2022/07/15 10:09:49;;;;;;;3.97;1.17;;;;;;;22.31;49.31;101854.66;5054017;28;20236;-73
2022/07/15 10:12:22;;;;;;;7.10;1.67;;;;;;;22.36;49.90;101849.25;5052435;28;20053;-73
2022/07/15 10:15:04;;;;;;;6.00;1.30;;;;;;;22.76;49.46;101866.50;5051941;28;20129;-75
2022/07/15 10:17:42;;;;;;;5.00;1.40;;;;;;;22.79;47.54;101866.38;5058579;28;20095;-75
2022/07/15 10:20:40;;;;;;;6.15;1.27;;;;;;;22.93;48.80;101861.50;5050950;28;20044;-75
2022/07/15 10:23:36;;;;;;;7.35;1.48;;;;;;;23.01;48.51;101860.78;5044395;28;20533;-74
2022/07/15 10:26:20;;;;;;;8.30;2.03;;;;;;;22.78;47.95;101855.56;5052011;28;20056;-79
2022/07/15 10:28:56;;;;;;;10.82;1.80;;;;;;;23.02;49.27;101859.56;5041619;28;20059;-74
2022/07/15 10:31:29;;;;;;;11.23;1.77;;;;;;;22.75;49.61;101864.94;5037762;28;20056;-74
2022/07/15 10:34:17;;;;;;;6.70;1.50;;;;;;;22.72;49.66;101860.97;5054212;28;20049;-74
2022/07/15 10:36:47;;;;;;;13.40;2.10;;;;;;;22.48;47.78;101861.75;5049933;28;20045;-75
2022/07/15 10:39:15;;;;;;;4.40;1.50;;;;;;;22.43;48.62;101859.50;5053153;28;20052;-69
2022/07/15 10:41:58;;;;;;;8.50;1.50;;;;;;;22.53;48.78;101866.84;5054494;28;20048;-74
2022/07/15 10:44:27;;;;;;;8.20;1.40;;;;;;;22.66;48.66;101862.00;5050397;28;20051;-70
2022/07/15 10:47:12;;;;;;;7.95;1.48;;;;;;;22.64;48.51;101859.63;5036880;28;20087;-70
2022/07/15 10:49:39;;;;;;;4.17;1.07;;;;;;;22.80;48.62;101855.88;5037563;28;20041;-71
2022/07/15 10:52:22;;;;;;;7.38;1.73;;;;;;;23.01;48.34;101860.78;5035271;28;20315;-70
2022/07/15 10:54:55;;;;;;;6.80;1.83;;;;;;;23.22;48.66;101859.28;5036815;28;20813;-72
2022/07/15 10:57:40;;;;;;;6.60;1.35;;;;;;;23.50;46.38;101861.09;5040574;28;20094;-75
2022/07/15 11:00:36;;;;;;;3.95;1.30;;;;;;;23.62;45.12;101846.16;5037577;28;20152;-71
2022/07/15 11:03:19;;;;;;;5.45;1.13;;;;;;;23.51;44.74;101855.00;5039033;28;20063;-70
2022/07/15 11:05:52;;;;;;;10.57;1.35;;;;;;;23.49;45.34;101851.06;5045312;28;20147;-68
2022/07/15 11:08:31;;;;;;;4.88;1.27;;;;;;;23.04;44.68;101848.59;5040430;28;20168;-71
2022/07/15 11:11:18;;;;;;;4.13;0.98;;;;;;;23.04;45.46;101837.31;5037074;28;20126;-71
2022/07/15 11:13:47;;;;;;;5.28;1.30;;;;;;;23.08;46.19;101835.16;5053799;28;20048;-73
2022/07/15 11:16:21;;;;;;;7.25;0.90;;;;;;;23.38;44.79;101831.66;5040822;28;20048;-73
2022/07/15 11:18:49;;;;;;;6.35;1.20;;;;;;;23.45;44.56;101825.00;5040389;28;20045;-75
2022/07/15 11:21:17;;;;;;;5.72;1.00;;;;;;;23.63;44.44;101825.13;5056028;28;20106;-77
2022/07/15 11:23:45;;;;;;;5.43;0.93;;;;;;;24.05;44.06;101826.31;5050815;28;20286;-71
2022/07/15 11:26:12;;;;;;;3.90;1.30;;;;;;;24.31;43.24;101817.19;5051440;28;20048;-74
2022/07/15 11:28:50;;;;;;;3.80;0.98;;;;;;;24.32;42.17;101815.94;5050874;28;20563;-72
2022/07/15 11:31:17;;;;;;;10.30;1.60;;;;;;;24.37;43.03;101814.53;5051684;28;20056;-74